Time,TemperatureF,DewpointF,PressureIn,WindDirection,WindDirectionDegrees,WindSpeedMPH,WindSpeedGustMPH,Humidity,HourlyPrecipIn,Conditions,Clouds,dailyrainin,SoftwareType,DateUTC
2013-06-23 00:02:00,61.5,62.0,29.99,ENE,69,0.0,-999.0,100,-99.99,,,0.02,weatherlink.com 1.10,2013-06-23 04:02:00,
2013-06-23 00:17:00,59.2,59.0,29.99,ENE,68,0.0,-999.0,99,-99.99,,,0.00,weatherlink.com 1.10,2013-06-23 04:17:00,
2013-06-23 00:32:00,60.9,61.0,29.99,ENE,69,3.0,-999.0,100,-99.99,,,0.00,weatherlink.com 1.10,2013-06-23 04:32:00,
2013-06-23 00:47:00,60.9,61.0,29.98,ENE,68,0.0,-999.0,100,-99.99,,,0.00,weatherlink.com 1.10,2013-06-23 04:47:00,
2013-06-23 01:02:00,61.2,61.0,29.98,ENE,69,0.0,-999.0,100,-99.99,,,0.00,weatherlink.com 1.10,2013-06-23 05:02:00,
2013-06-23 01:17:00,61.0,61.0,29.97,ENE,69,0.0,-999.0,100,-99.99,,,0.00,weatherlink.com 1.10,2013-06-23 05:17:00,
2013-06-23 01:32:00,61.1,61.0,29.96,ENE,69,2.0,-999.0,100,-99.99,,,0.00,weatherlink.com 1.10,2013-06-23 05:32:00,
2013-06-23 01:47:00,61.1,61.0,29.95,ENE,69,1.0,-999.0,100,-99.99,,,0.00,weatherlink.com 1.10,2013-06-23 05:47:00,
2013-06-23 02:02:00,61.2,61.0,29.95,ENE,69,3.0,-999.0,100,-99.99,,,0.00,weatherlink.com 1.10,2013-06-23 06:02:00,
2013-06-23 02:17:00,61.1,61.0,29.95,ENE,69,5.0,-999.0,100,-99.99,,,0.00,weatherlink.com 1.10,2013-06-23 06:17:00,
2013-06-23 02:32:00,61.1,61.0,29.95,ENE,69,7.0,-999.0,100,-99.99,,,0.00,weatherlink.com 1.10,2013-06-23 06:32:00,
2013-06-23 02:47:00,61.3,61.0,29.95,ENE,69,5.0,-999.0,100,-99.99,,,0.00,weatherlink.com 1.10,2013-06-23 06:47:00,
2013-06-23 03:02:00,61.6,61.0,29.94,ENE,75,3.0,-999.0,99,-99.99,,,0.00,weatherlink.com 1.10,2013-06-23 07:02:00,
2013-06-23 03:17:00,61.6,61.0,29.94,ENE,77,3.0,-999.0,99,-99.99,,,0.00,weatherlink.com 1.10,2013-06-23 07:17:00,
2013-06-23 03:32:00,61.5,61.0,29.94,East,80,0.0,-999.0,99,-99.99,,,0.00,weatherlink.com 1.10,2013-06-23 07:32:00,
2013-06-23 03:47:00,61.5,61.0,29.95,East,79,1.0,-999.0,99,-99.99,,,0.00,weatherlink.com 1.10,2013-06-23 07:47:00,
2013-06-23 04:02:00,61.5,61.0,29.95,East,79,0.0,-999.0,99,-99.99,,,0.00,weatherlink.com 1.10,2013-06-23 08:02:00,
2013-06-23 04:17:00,61.5,61.0,29.95,East,80,0.0,-999.0,99,-99.99,,,0.00,weatherlink.com 1.10,2013-06-23 08:17:00,
2013-06-23 04:32:00,60.3,60.0,29.95,East,80,5.0,-999.0,99,-99.99,,,0.00,weatherlink.com 1.10,2013-06-23 08:32:00,
2013-06-23 04:47:00,59.4,59.0,29.93,East,88,6.0,-999.0,99,-99.99,,,0.00,weatherlink.com 1.10,2013-06-23 08:47:00,
2013-06-23 05:02:00,58.3,58.0,29.92,East,86,7.0,-999.0,99,-99.99,,,0.00,weatherlink.com 1.10,2013-06-23 09:02:00,
2013-06-23 05:17:00,57.5,57.0,29.90,ESE,103,6.0,-999.0,99,-99.99,,,0.00,weatherlink.com 1.10,2013-06-23 09:17:00,
2013-06-23 05:32:00,57.4,57.0,29.91,East,87,8.0,-999.0,99,-99.99,,,0.00,weatherlink.com 1.10,2013-06-23 09:32:00,
2013-06-23 05:48:00,56.9,57.0,29.91,ENE,74,5.0,-999.0,99,-99.99,,,0.00,weatherlink.com 1.10,2013-06-23 09:48:00,
2013-06-23 06:03:00,56.7,57.0,29.91,East,82,6.0,-999.0,99,-99.99,,,0.00,weatherlink.com 1.10,2013-06-23 10:03:00,
2013-06-23 06:18:00,56.8,57.0,29.91,ENE,68,4.0,-999.0,100,-99.99,,,0.00,weatherlink.com 1.10,2013-06-23 10:18:00,
2013-06-23 06:33:00,56.9,57.0,29.91,East,95,9.0,-999.0,100,-99.99,,,0.00,weatherlink.com 1.10,2013-06-23 10:33:00,
2013-06-23 06:48:00,57.6,58.0,29.91,ENE,78,5.0,-999.0,100,-99.99,,,0.00,weatherlink.com 1.10,2013-06-23 10:48:00,
2013-06-23 07:03:00,58.1,58.0,29.90,ENE,67,6.0,-999.0,100,-99.99,,,0.00,weatherlink.com 1.10,2013-06-23 11:03:00,
2013-06-23 07:18:00,58.1,58.0,29.91,East,80,4.0,-999.0,100,-99.99,,,0.00,weatherlink.com 1.10,2013-06-23 11:18:00,
2013-06-23 07:33:00,58.0,58.0,29.91,ENE,71,7.0,-999.0,100,-99.99,,,0.00,weatherlink.com 1.10,2013-06-23 11:33:00,
2013-06-23 07:48:00,57.7,58.0,29.91,East,96,8.0,-999.0,100,-99.99,,,0.00,weatherlink.com 1.10,2013-06-23 11:48:00,
2013-06-23 08:03:00,57.5,58.0,29.91,ENE,76,3.0,-999.0,100,-99.99,,,0.00,weatherlink.com 1.10,2013-06-23 12:03:00,
2013-06-23 08:18:00,57.4,57.0,29.91,East,79,5.0,-999.0,100,-99.99,,,0.00,weatherlink.com 1.10,2013-06-23 12:18:00,
2013-06-23 08:33:00,56.9,57.0,29.91,ENE,69,4.0,-999.0,100,-99.99,,,0.00,weatherlink.com 1.10,2013-06-23 12:33:00,
2013-06-23 08:48:00,56.6,57.0,29.92,ENE,69,3.0,-999.0,100,-99.99,,,0.00,weatherlink.com 1.10,2013-06-23 12:48:00,
2013-06-23 09:03:00,56.6,57.0,29.93,ENE,69,3.0,-999.0,100,-99.99,,,0.00,weatherlink.com 1.10,2013-06-23 13:03:00,
2013-06-23 09:18:00,55.9,56.0,29.92,ENE,71,1.0,-999.0,100,-99.99,,,0.00,weatherlink.com 1.10,2013-06-23 13:18:00,
2013-06-23 09:33:00,55.9,56.0,29.93,ENE,67,5.0,-999.0,100,-99.99,,,0.00,weatherlink.com 1.10,2013-06-23 13:33:00,
2013-06-23 09:48:00,55.8,56.0,29.93,East,82,3.0,-999.0,100,-99.99,,,0.00,weatherlink.com 1.10,2013-06-23 13:48:00,
2013-06-23 10:03:00,55.9,56.0,29.93,East,90,6.0,-999.0,100,-99.99,,,0.00,weatherlink.com 1.10,2013-06-23 14:03:00,
2013-06-23 10:18:00,56.0,56.0,29.93,East,98,7.0,-999.0,100,-99.99,,,0.00,weatherlink.com 1.10,2013-06-23 14:18:00,
2013-06-23 10:48:00,56.7,57.0,29.93,ESE,111,4.0,-999.0,100,-99.99,,,0.00,weatherlink.com 1.10,2013-06-23 14:48:00,
2013-06-23 11:18:00,57.1,57.0,29.92,East,88,6.0,-999.0,100,-99.99,,,0.00,weatherlink.com 1.10,2013-06-23 15:18:00,
2013-06-23 11:48:00,57.6,57.0,29.93,East,92,4.0,-999.0,98,-99.99,,,0.00,weatherlink.com 1.10,2013-06-23 15:48:00,
2013-06-23 12:03:00,58.4,58.0,29.94,East,94,0.0,-999.0,98,-99.99,,,0.00,weatherlink.com 1.10,2013-06-23 16:03:00,
2013-06-23 12:18:00,59.3,59.0,29.91,East,93,4.0,-999.0,97,-99.99,,,0.00,weatherlink.com 1.10,2013-06-23 16:18:00,
2013-06-23 12:48:00,59.6,58.0,29.93,East,93,1.0,-999.0,94,-99.99,,,0.00,weatherlink.com 1.10,2013-06-23 16:48:00,
2013-06-23 13:03:00,62.4,61.0,29.93,East,92,1.0,-999.0,95,-99.99,,,0.00,weatherlink.com 1.10,2013-06-23 17:03:00,
2013-06-23 13:18:00,63.2,61.0,29.93,East,92,1.0,-999.0,92,-99.99,,,0.00,weatherlink.com 1.10,2013-06-23 17:18:00,
2013-06-23 13:33:00,62.9,61.0,29.93,East,94,3.0,-999.0,93,-99.99,,,0.00,weatherlink.com 1.10,2013-06-23 17:33:00,
2013-06-23 13:48:00,66.4,64.0,29.93,WNW,300,3.0,-999.0,92,-99.99,,,0.00,weatherlink.com 1.10,2013-06-23 17:48:00,
2013-06-23 14:03:00,66.7,64.0,29.92,WNW,293,4.0,-999.0,90,-99.99,,,0.00,weatherlink.com 1.10,2013-06-23 18:03:00,
2013-06-23 14:18:00,63.7,61.0,29.91,WNW,291,1.0,-999.0,90,-99.99,,,0.00,weatherlink.com 1.10,2013-06-23 18:18:00,
2013-06-23 14:33:00,63.5,60.0,29.91,WNW,292,0.0,-999.0,89,-99.99,,,0.00,weatherlink.com 1.10,2013-06-23 18:33:00,
2013-06-23 14:48:00,65.3,63.0,29.91,WNW,291,0.0,-999.0,91,-99.99,,,0.00,weatherlink.com 1.10,2013-06-23 18:48:00,
2013-06-23 15:03:00,61.4,58.0,29.90,NW,315,2.0,-999.0,89,-99.99,,,0.00,weatherlink.com 1.10,2013-06-23 19:03:00,
2013-06-23 15:18:00,63.3,62.0,29.90,NW,315,0.0,-999.0,94,-99.99,,,0.00,weatherlink.com 1.10,2013-06-23 19:18:00,
2013-06-23 15:33:00,66.5,64.0,29.90,NW,315,0.0,-999.0,90,-99.99,,,0.00,weatherlink.com 1.10,2013-06-23 19:33:00,
2013-06-23 15:48:00,67.2,62.0,29.89,NW,315,0.0,-999.0,83,-99.99,,,0.00,weatherlink.com 1.10,2013-06-23 19:48:00,
2013-06-23 16:03:00,64.9,61.0,29.89,North,350,0.0,-999.0,86,-99.99,,,0.00,weatherlink.com 1.10,2013-06-23 20:03:00,
2013-06-23 16:18:00,63.9,61.0,29.88,East,98,2.0,-999.0,89,-99.99,,,0.00,weatherlink.com 1.10,2013-06-23 20:18:00,
2013-06-23 16:33:00,65.4,62.0,29.87,SE,124,2.0,-999.0,87,-99.99,,,0.00,weatherlink.com 1.10,2013-06-23 20:33:00,
2013-06-23 16:48:00,65.8,62.0,29.86,East,99,2.0,-999.0,86,-99.99,,,0.00,weatherlink.com 1.10,2013-06-23 20:48:00,
2013-06-23 17:03:00,63.5,60.0,29.85,East,96,4.0,-999.0,89,-99.99,,,0.00,weatherlink.com 1.10,2013-06-23 21:03:00,
2013-06-23 17:18:00,65.5,62.0,29.84,ENE,69,10.0,-999.0,89,-99.99,,,0.00,weatherlink.com 1.10,2013-06-23 21:18:00,
2013-06-23 17:33:00,66.9,63.0,29.84,East,94,5.0,-999.0,87,-99.99,,,0.00,weatherlink.com 1.10,2013-06-23 21:33:00,
2013-06-23 17:48:00,65.2,62.0,29.83,East,80,6.0,-999.0,88,-99.99,,,0.00,weatherlink.com 1.10,2013-06-23 21:48:00,
2013-06-23 18:03:00,65.1,62.0,29.82,ESE,109,3.0,-999.0,88,-99.99,,,0.00,weatherlink.com 1.10,2013-06-23 22:03:00,
2013-06-23 18:18:00,65.3,62.0,29.82,NE,53,11.0,-999.0,89,-99.99,,,0.00,weatherlink.com 1.10,2013-06-23 22:18:00,
2013-06-23 18:33:00,65.9,62.0,29.82,East,84,6.0,-999.0,88,-99.99,,,0.00,weatherlink.com 1.10,2013-06-23 22:33:00,
2013-06-23 18:49:00,63.3,61.0,29.81,ESE,109,6.0,-999.0,91,-99.99,,,0.00,weatherlink.com 1.10,2013-06-23 22:49:00,
2013-06-23 19:04:00,63.6,61.0,29.81,East,95,7.0,-999.0,92,-99.99,,,0.00,weatherlink.com 1.10,2013-06-23 23:04:00,
2013-06-23 19:19:00,64.2,62.0,29.81,ENE,69,11.0,-999.0,92,-99.99,,,0.00,weatherlink.com 1.10,2013-06-23 23:19:00,
2013-06-23 19:34:00,65.3,63.0,29.81,ENE,61,6.0,-999.0,91,-99.99,,,0.00,weatherlink.com 1.10,2013-06-23 23:34:00,
2013-06-23 19:49:00,66.7,64.0,29.82,ENE,69,10.0,-999.0,90,-99.99,,,0.00,weatherlink.com 1.10,2013-06-23 23:49:00,
2013-06-23 20:04:00,68.6,65.0,29.83,NE,55,1.0,-999.0,88,-99.99,,,0.00,weatherlink.com 1.10,2013-06-24 00:04:00,
2013-06-23 20:19:00,67.7,64.0,29.83,ENE,76,7.0,-999.0,88,-99.99,,,0.00,weatherlink.com 1.10,2013-06-24 00:19:00,
2013-06-23 20:34:00,66.7,64.0,29.83,ENE,70,5.0,-999.0,90,-99.99,,,0.00,weatherlink.com 1.10,2013-06-24 00:34:00,
2013-06-23 20:49:00,65.3,63.0,29.84,ENE,60,2.0,-999.0,92,-99.99,,,0.00,weatherlink.com 1.10,2013-06-24 00:49:00,
2013-06-23 21:04:00,64.9,63.0,29.84,ENE,59,2.0,-999.0,93,-99.99,,,0.00,weatherlink.com 1.10,2013-06-24 01:04:00,
2013-06-23 21:19:00,64.4,62.0,29.85,ENE,59,3.0,-999.0,93,-99.99,,,0.00,weatherlink.com 1.10,2013-06-24 01:19:00,
2013-06-23 21:34:00,63.8,62.0,29.86,ENE,59,0.0,-999.0,94,-99.99,,,0.00,weatherlink.com 1.10,2013-06-24 01:34:00,
2013-06-23 21:49:00,62.8,61.0,29.86,ENE,59,0.0,-999.0,93,-99.99,,,0.00,weatherlink.com 1.10,2013-06-24 01:49:00,
2013-06-23 22:04:00,61.7,60.0,29.86,ENE,59,0.0,-999.0,94,-99.99,,,0.00,weatherlink.com 1.10,2013-06-24 02:04:00,
2013-06-23 22:19:00,61.3,60.0,29.86,ENE,63,0.0,-999.0,96,-99.99,,,0.00,weatherlink.com 1.10,2013-06-24 02:19:00,
2013-06-23 22:34:00,60.5,59.0,29.86,ENE,63,0.0,-999.0,96,-99.99,,,0.00,weatherlink.com 1.10,2013-06-24 02:34:00,
2013-06-23 22:49:00,60.2,59.0,29.86,ENE,63,0.0,-999.0,96,-99.99,,,0.00,weatherlink.com 1.10,2013-06-24 02:49:00,
2013-06-23 23:04:00,60.7,60.0,29.86,ENE,63,0.0,-999.0,97,-99.99,,,0.00,weatherlink.com 1.10,2013-06-24 03:04:00,
2013-06-23 23:19:00,60.7,60.0,29.86,ENE,63,0.0,-999.0,97,-99.99,,,0.00,weatherlink.com 1.10,2013-06-24 03:19:00,
2013-06-23 23:34:00,60.9,60.0,29.85,ENE,63,0.0,-999.0,97,-99.99,,,0.00,weatherlink.com 1.10,2013-06-24 03:34:00,
2013-06-23 23:49:00,61.3,61.0,29.85,ENE,63,0.0,-999.0,97,-99.99,,,0.00,weatherlink.com 1.10,2013-06-24 03:49:00,